createdAt,value
2018-06-18T00:01:46.732Z,7.37
2018-06-18T00:06:49.792Z,8.40
2018-06-18T00:11:52.843Z,11.20
2018-06-18T00:16:55.931Z,7.33
2018-06-18T00:21:59.042Z,8.00
2018-06-18T00:27:02.115Z,8.83
2018-06-18T00:32:05.698Z,10.87
2018-06-18T00:37:08.824Z,11.17
2018-06-18T00:42:11.925Z,10.40
2018-06-18T00:47:14.995Z,11.90
2018-06-18T00:52:18.054Z,9.70
2018-06-18T00:57:21.144Z,8.23
2018-06-18T01:02:24.198Z,17.33
2018-06-18T01:07:27.274Z,7.17
2018-06-18T01:12:30.273Z,10.00
2018-06-18T01:17:33.405Z,18.80
2018-06-18T01:22:39.051Z,22.10
2018-06-18T01:27:42.195Z,10.20
2018-06-18T01:32:45.313Z,16.17
2018-06-18T01:37:48.373Z,13.13
2018-06-18T01:42:51.640Z,11.13
2018-06-18T01:47:54.711Z,12.93
2018-06-18T01:52:58.100Z,15.83
2018-06-18T01:58:01.143Z,12.20
2018-06-18T02:03:04.210Z,11.73
2018-06-18T02:08:07.224Z,7.10
2018-06-18T02:13:10.269Z,11.50
2018-06-18T02:18:13.308Z,10.43
2018-06-18T02:23:16.387Z,9.83
2018-06-18T02:28:25.043Z,19.43
2018-06-18T02:33:33.666Z,12.63
2018-06-18T02:38:42.217Z,13.23
2018-06-18T02:43:45.328Z,11.20
2018-06-18T02:48:48.399Z,7.20
2018-06-18T02:53:51.565Z,13.43
2018-06-18T02:58:54.641Z,9.30
2018-06-18T03:03:57.874Z,12.27
2018-06-18T03:09:00.903Z,9.60
2018-06-18T03:14:04.457Z,16.23
2018-06-18T03:19:13.385Z,9.30
2018-06-18T03:24:21.958Z,6.57
2018-06-18T03:29:27.857Z,6.27
2018-06-18T03:34:30.926Z,9.27
2018-06-18T03:39:33.978Z,7.60
2018-06-18T03:44:49.916Z,9.67
2018-06-18T03:49:53.162Z,10.90
2018-06-18T03:54:59.766Z,10.77
2018-06-18T04:00:03.057Z,13.10
2018-06-18T04:05:11.882Z,8.20
2018-06-18T04:10:21.004Z,5.53
2018-06-18T04:15:24.139Z,10.73
2018-06-18T04:20:31.252Z,9.07
2018-06-18T04:25:34.346Z,9.13
2018-06-18T04:30:37.378Z,6.60
2018-06-18T04:35:40.437Z,12.17
2018-06-18T04:40:43.463Z,11.13
2018-06-18T04:45:51.017Z,12.33
2018-06-18T04:50:59.617Z,12.13
2018-06-18T04:56:02.692Z,7.20
2018-06-18T05:01:22.010Z,6.93
2018-06-18T05:06:27.113Z,10.27
2018-06-18T05:11:30.111Z,8.00
2018-06-18T05:16:33.369Z,6.97
2018-06-18T05:21:36.437Z,9.07
2018-06-18T05:26:45.282Z,5.40
2018-06-18T05:31:48.273Z,7.57
2018-06-18T05:36:53.624Z,10.43
2018-06-18T05:41:56.664Z,8.07
2018-06-18T05:46:59.689Z,7.13
2018-06-18T05:52:02.750Z,16.13
2018-06-18T05:57:05.809Z,8.23
2018-06-18T06:02:08.869Z,9.57
2018-06-18T06:07:11.864Z,4.83
2018-06-18T06:12:14.849Z,7.40
2018-06-18T06:17:17.867Z,10.63
2018-06-18T06:22:20.882Z,13.60
2018-06-18T06:27:23.941Z,5.77
2018-06-18T06:32:27.023Z,8.53
2018-06-18T06:37:30.153Z,8.27
2018-06-18T06:42:33.135Z,6.27
2018-06-18T06:47:36.168Z,8.37
2018-06-18T06:52:39.231Z,9.80
2018-06-18T06:57:42.247Z,6.73
2018-06-18T07:02:45.242Z,8.37
2018-06-18T07:07:48.286Z,11.77
2018-06-18T07:12:51.382Z,6.13
2018-06-18T07:17:54.412Z,11.03
2018-06-18T07:22:57.537Z,18.43
2018-06-18T07:28:00.594Z,7.73
2018-06-18T07:33:03.602Z,12.03
2018-06-18T07:38:06.634Z,7.43
2018-06-18T07:43:09.699Z,9.40
2018-06-18T07:48:13.227Z,12.83
2018-06-18T07:53:16.284Z,7.83
2018-06-18T07:58:19.304Z,4.80
2018-06-18T08:03:22.350Z,8.33
2018-06-18T08:08:25.502Z,12.87
2018-06-18T08:13:28.495Z,7.17
2018-06-18T08:18:31.526Z,12.17
2018-06-18T08:23:34.566Z,8.30
2018-06-18T08:28:37.594Z,17.70
2018-06-18T08:33:40.673Z,11.67
2018-06-18T08:38:43.754Z,10.10
2018-06-18T08:43:46.805Z,9.43
2018-06-18T08:48:55.513Z,14.60
2018-06-18T08:54:04.216Z,4.80
2018-06-18T08:59:12.832Z,5.87
2018-06-18T09:04:21.704Z,14.10
2018-06-18T09:09:24.797Z,11.57
2018-06-18T09:14:27.796Z,8.60
2018-06-18T09:19:30.829Z,7.90
2018-06-18T09:24:34.196Z,7.83
2018-06-18T09:29:37.257Z,8.23
2018-06-18T09:34:40.428Z,9.53
2018-06-18T09:39:43.489Z,11.63
2018-06-18T09:44:46.585Z,8.67
2018-06-18T09:49:55.194Z,11.07
2018-06-18T09:55:03.757Z,10.83
2018-06-18T10:00:14.657Z,7.83
2018-06-18T10:05:17.656Z,10.27
2018-06-18T10:10:20.706Z,6.60
2018-06-18T10:15:23.689Z,7.37
2018-06-18T10:20:26.711Z,13.73
2018-06-18T10:25:29.787Z,6.10
2018-06-18T10:30:32.818Z,9.83
2018-06-18T10:35:41.489Z,4.73
2018-06-18T10:40:50.330Z,7.47
2018-06-18T10:45:53.321Z,6.03
2018-06-18T10:50:56.965Z,11.93
2018-06-18T10:56:00.032Z,4.57
2018-06-18T11:01:08.036Z,6.57
2018-06-18T11:06:16.790Z,14.33
2018-06-18T11:11:22.144Z,5.10
2018-06-18T11:16:25.420Z,6.90
2018-06-18T11:21:34.421Z,8.80
2018-06-18T11:26:43.140Z,7.00
2018-06-18T11:31:46.173Z,4.63
2018-06-18T11:36:49.224Z,5.50
2018-06-18T11:41:52.235Z,5.23
2018-06-18T11:46:55.218Z,3.70
2018-06-18T11:51:58.259Z,3.53
2018-06-18T11:57:01.269Z,4.00
2018-06-18T12:02:10.079Z,5.70
2018-06-18T12:07:18.757Z,5.67
2018-06-18T12:12:21.820Z,3.50
2018-06-18T12:17:24.906Z,4.13
2018-06-18T12:22:27.898Z,3.60
2018-06-18T12:27:33.454Z,3.20
2018-06-18T12:32:36.486Z,3.60
2018-06-18T12:37:39.505Z,3.40
2018-06-18T12:42:42.598Z,6.80
2018-06-18T12:47:51.343Z,4.37
2018-06-18T12:52:59.960Z,3.53
2018-06-18T12:58:03.021Z,2.93
2018-06-18T13:03:10.304Z,3.20
2018-06-18T13:08:13.594Z,3.03
2018-06-18T13:13:16.695Z,7.60
2018-06-18T13:18:19.815Z,3.50
2018-06-18T13:23:22.809Z,4.53
2018-06-18T13:28:25.798Z,4.30
2018-06-18T13:33:28.822Z,6.50
2018-06-18T13:38:37.447Z,5.20
2018-06-18T13:43:46.078Z,4.70
2018-06-18T13:48:51.953Z,5.80
2018-06-18T13:53:55.085Z,6.27
2018-06-18T13:58:58.106Z,6.53
2018-06-18T14:04:01.097Z,8.03
2018-06-18T14:09:06.111Z,13.43
2018-06-18T14:14:09.155Z,6.40
2018-06-18T14:19:17.732Z,6.00
2018-06-18T14:24:20.885Z,8.00
2018-06-18T14:29:29.592Z,4.43
2018-06-18T14:34:38.172Z,7.27
2018-06-18T14:39:51.605Z,7.67
2018-06-18T14:44:54.665Z,6.80
2018-06-18T14:49:57.649Z,5.73
2018-06-18T14:55:00.783Z,5.90
2018-06-18T15:00:24.813Z,8.07
2018-06-18T15:05:34.161Z,8.67
2018-06-18T15:10:42.952Z,6.50
2018-06-18T15:16:00.439Z,6.60
2018-06-18T15:21:04.107Z,10.60
2018-06-18T15:26:07.226Z,9.70
2018-06-18T15:31:10.195Z,7.60
2018-06-18T15:36:13.230Z,7.40
2018-06-18T15:41:16.257Z,10.57
2018-06-18T15:46:19.261Z,11.47
2018-06-18T15:51:22.251Z,8.67
2018-06-18T15:56:25.265Z,8.67
2018-06-18T16:01:28.269Z,15.50
2018-06-18T16:06:31.301Z,15.90
2018-06-18T16:11:34.309Z,10.40
2018-06-18T16:16:37.559Z,14.87
2018-06-18T16:21:40.551Z,9.07
2018-06-18T16:26:44.018Z,9.77
2018-06-18T16:31:47.251Z,9.63
2018-06-18T16:36:50.265Z,8.07
2018-06-18T16:41:53.331Z,12.70
2018-06-18T16:46:56.333Z,6.50
2018-06-18T16:51:59.347Z,8.93
2018-06-18T16:57:03.643Z,5.33
2018-06-18T17:02:08.052Z,8.00
2018-06-18T17:07:12.031Z,9.10
2018-06-18T17:12:15.148Z,5.83
2018-06-18T17:17:18.211Z,6.57
2018-06-18T17:22:21.226Z,7.50
2018-06-18T17:27:24.274Z,9.50
2018-06-18T17:32:27.318Z,8.60
2018-06-18T17:37:30.341Z,7.47
2018-06-18T17:42:33.325Z,10.47
2018-06-18T17:47:36.329Z,6.23
2018-06-18T17:52:39.413Z,9.60
2018-06-18T17:57:42.418Z,7.20
2018-06-18T18:02:45.695Z,7.57
2018-06-18T18:07:48.712Z,6.50
2018-06-18T18:12:51.933Z,7.03
2018-06-18T18:17:54.994Z,8.40
2018-06-18T18:22:58.310Z,5.87
2018-06-18T18:28:01.285Z,6.33
2018-06-18T18:33:04.525Z,7.13
2018-06-18T18:38:07.543Z,8.00
2018-06-18T18:43:10.520Z,7.30
2018-06-18T18:48:13.600Z,8.57
2018-06-18T18:53:16.611Z,7.10
2018-06-18T18:59:28.774Z,7.60
2018-06-18T19:05:05.019Z,10.87
2018-06-18T19:10:41.149Z,7.80
2018-06-18T19:15:44.199Z,11.83
2018-06-18T19:20:55.272Z,7.00
2018-06-18T19:25:58.310Z,7.80
2018-06-18T19:31:05.229Z,8.90
2018-06-18T19:36:08.499Z,9.60
2018-06-18T19:41:11.471Z,8.33
2018-06-18T19:46:16.094Z,8.40
2018-06-18T19:51:19.188Z,9.37
2018-06-18T19:56:22.292Z,10.30
2018-06-18T20:01:25.413Z,7.70
2018-06-18T20:06:28.525Z,9.50
2018-06-18T20:11:31.654Z,7.63
2018-06-18T20:16:35.103Z,8.50
2018-06-18T20:21:38.062Z,7.63
2018-06-18T20:26:41.062Z,8.40
2018-06-18T20:31:45.058Z,10.30
2018-06-18T20:36:48.158Z,10.23
2018-06-18T20:41:51.261Z,10.33
2018-06-18T20:46:54.257Z,8.73
2018-06-18T20:51:57.297Z,9.67
2018-06-18T20:57:00.310Z,9.73
2018-06-18T21:02:03.385Z,12.00
2018-06-18T21:07:06.393Z,11.23
2018-06-18T21:12:09.386Z,11.90
2018-06-18T21:17:12.435Z,11.17
2018-06-18T21:22:15.776Z,13.80
2018-06-18T21:27:18.845Z,13.10
2018-06-18T21:32:21.841Z,14.27
2018-06-18T21:37:24.901Z,16.13
2018-06-18T21:42:27.895Z,15.67
2018-06-18T21:47:30.942Z,15.73
2018-06-18T21:52:33.988Z,16.97
2018-06-18T21:57:37.062Z,15.73
2018-06-18T22:02:40.218Z,13.13
2018-06-18T22:07:43.908Z,14.27
2018-06-18T22:12:46.982Z,15.90
2018-06-18T22:17:50.067Z,15.60
2018-06-18T22:22:53.352Z,14.00
2018-06-18T22:27:56.513Z,17.53
2018-06-18T22:32:59.561Z,17.67
2018-06-18T22:38:02.611Z,18.13
2018-06-18T22:43:05.947Z,15.90
2018-06-18T22:48:08.987Z,12.97
2018-06-18T22:53:12.006Z,15.83
2018-06-18T22:58:15.106Z,13.53
2018-06-18T23:03:18.215Z,20.37
2018-06-18T23:08:21.265Z,17.40
2018-06-18T23:13:30.226Z,17.37
2018-06-18T23:18:33.288Z,16.50
2018-06-18T23:23:36.355Z,18.60
2018-06-18T23:28:50.732Z,17.40
2018-06-18T23:33:53.874Z,17.57
2018-06-18T23:38:56.942Z,20.83
2018-06-18T23:43:59.946Z,20.40
2018-06-18T23:49:02.989Z,22.87
2018-06-18T23:54:06.067Z,15.80
2018-06-18T23:59:09.575Z,14.30
